Zuiderdam — PBIG — position and weather

sailwx.info

Track history (hours):
 
Tides and Currents Weather Stations Pressure Air Temp Water Temp Dewpoint Dewpoint Depression Visibility Wind Speed Wind Dir Waves Ship Positions

Zuiderdam (Netherlands)

Operator: Holland America Line

Last reported at 2019-Jul-19 07:00 UTC. Time now 2019-Jul-20 13:32 UTC.
Position N 66°18' W 019°30'.

Type: Passenger vessel. MMSI: 245304000.

Wind from 060 at 44 knots

Barometer 1007.0 mb
Air temperature 8.1 ° C
Visibility: greater than 0.5 NM
Dewpoint 7.5 ° C
Water temperature 11.0 ° C

Date/timePositionNaut miles runAvg speedWind from/ knotsBaromVisibWave heightAir tempDewpointWater temp
2019-Jul-19 07:00N 66°18' W 019°30'3215.9 060 / 441007.0 0.5 8.1 7.511.0
2019-Jul-19 05:00N 66°24' W 020°48'13310.2 080 / 381008.0 2.2 8.0 7.110.3
2019-Jul-18 16:00N 64°18' W 022°30'214.3 050 / 321002.010.8 17.911.214.2
2019-Jul-18 15:52N 64°18' W 022°26'818.1
2019-Jul-18 15:25N 64°15' W 022°09'911.4
2019-Jul-18 14:36N 64°09' W 021°52'0 0.0
2019-Jul-18 14:24N 64°09' W 021°52'0 0.0
2019-Jul-18 14:00N 64°09' W 021°52'0 0.0
2019-Jul-18 13:18N 64°09' W 021°52'0 0.0
2019-Jul-18 12:12N 64°09' W 021°52'0 0.0
2019-Jul-18 09:18N 64°09' W 021°52'0 0.0
2019-Jul-18 07:30N 64°09' W 021°52'0 0.0
2019-Jul-18 05:30N 64°09' W 021°52'0 0.0
2019-Jul-18 04:54N 64°09' W 021°52'0 0.0
2019-Jul-18 03:36N 64°09' W 021°52'0 0.0
2019-Jul-18 03:30N 64°09' W 021°52'0 0.0
2019-Jul-18 03:00N 64°09' W 021°52'0 0.0
2019-Jul-18 01:18N 64°09' W 021°52'0 0.0
2019-Jul-18 00:18N 64°09' W 021°52'0 0.0
2019-Jul-18 00:00N 64°09' W 021°52'0 0.0
2019-Jul-17 23:30N 64°09' W 021°52'0 0.0
2019-Jul-17 22:48N 64°09' W 021°52'0 0.0
2019-Jul-17 22:30N 64°09' W 021°52'0 0.0
2019-Jul-17 18:42N 64°09' W 021°52'0 0.0
2019-Jul-17 18:06N 64°09' W 021°52'0 0.0
2019-Jul-17 13:36N 64°09' W 021°52'0 0.0
2019-Jul-17 13:00N 64°09' W 021°52'0 0.0
2019-Jul-17 10:42N 64°09' W 021°52'0 0.0
2019-Jul-17 08:24N 64°09' W 021°52'17 7.1
2019-Jul-17 06:00N 64°06' W 022°30'1616.0 060 / 181002.0 0.3 12.411.613.9
2019-Jul-17 05:00N 63°54' W 022°54'3015.2 330 / 251002.0 12.611.814.1
2019-Jul-17 03:00N 63°30' W 022°12'10617.7 070 / 101002.0 5.4 12.511.714.0
2019-Jul-16 21:00N 62°48' W 018°36'9318.7 100 / 151002.0 5.4 14.112.714.1
2019-Jul-16 16:00N 62°18' W 015°24'12120.2 140 / 181004.0 5.4 14.112.814.9
2019-Jul-16 10:00N 61°42' W 011°18'5719.1 170 / 221019.0 0.5 12.712.413.9
2019-Jul-16 07:00N 61°24' W 009°24'1818.3 260 / 141012.0 1.1 11.811.513.3
2019-Jul-16 06:00N 61°18' W 008°48'1818.3 280 / 141013.0 0.5 11.511.213.5
2019-Jul-16 05:00N 61°12' W 008°12'253 9.5 270 / 171014.0 0.3 11.811.313.0
2019-Jul-15 02:14N 59°16' W 000°38'1218.1
2019-Jul-15 01:35N 59°05' W 000°32'318.0
2019-Jul-15 01:26N 59°02' W 000°30'917.9
2019-Jul-15 00:58N 58°54' W 000°25'817.8
2019-Jul-15 00:29N 58°46' W 000°21'917.6
2019-Jul-14 23:59N 58°37' W 000°16'917.4
2019-Jul-14 23:27N 58°28' W 000°11'1317.1
2019-Jul-14 22:42N 58°16' W 000°05'716.9
2019-Jul-14 22:18N 58°10' W 000°00'616.9
2019-Jul-14 21:55N 58°04' E 000°04'716.9
2019-Jul-14 21:28N 57°57' E 000°08'816.8
2019-Jul-14 21:00N 57°49' E 000°13'816.8
2019-Jul-14 20:30N 57°41' E 000°17'917.0
2019-Jul-14 19:59N 57°33' E 000°22'917.1
2019-Jul-14 19:28N 57°24' E 000°28'1017.4
2019-Jul-14 18:54N 57°15' E 000°34'817.5
2019-Jul-14 18:27N 57°07' E 000°38'817.5
2019-Jul-14 18:00N 56°60' E 000°43'917.5
2019-Jul-14 17:30N 56°52' E 000°48'2344.4
2019-Jul-14 17:00N 56°30' E 001°00'1425298.9 340 / 421024.0 5.4 13.8 9.616.5
2019-Jul-14 16:59N 56°43' E 000°53'713.8
2019-Jul-14 16:29N 56°37' E 000°56'713.8
2019-Jul-14 16:00N 56°30' E 001°00'713.9
2019-Jul-14 15:30N 56°24' E 001°04'813.8
2019-Jul-14 14:58N 56°17' E 001°08'613.6
2019-Jul-14 14:29N 56°10' E 001°11'813.5
2019-Jul-14 13:55N 56°03' E 001°15'613.3
2019-Jul-14 13:26N 55°57' E 001°19'613.2
2019-Jul-14 12:59N 55°51' E 001°22'713.1
2019-Jul-14 12:29N 55°45' E 001°25'613.2
2019-Jul-14 12:00N 55°39' E 001°29'713.2
2019-Jul-14 11:30N 55°33' E 001°32'713.2
2019-Jul-14 11:00N 55°26' E 001°35'713.3
2019-Jul-14 10:27N 55°19' E 001°39'816.5
2019-Jul-14 10:00N 55°12' E 001°42'1 9.8 350 / 251023.0 5.4 13.9 9.316.8
2019-Jul-14 09:55N 55°13' E 001°43'613.5
2019-Jul-14 09:30N 55°07' E 001°46'713.5
2019-Jul-14 09:00N 55°01' E 001°49'4213.3
2019-Jul-14 05:52N 54°21' E 002°11'5213.5
2019-Jul-14 02:00N 53°30' E 002°30'4314.5 330 / 211022.0 5.4 15.111.518.0
2019-Jul-13 23:02N 52°53' E 003°07'414.8
2019-Jul-13 22:45N 52°49' E 003°09'414.6
2019-Jul-13 22:28N 52°45' E 003°12'1114.1
2019-Jul-13 21:44N 52°35' E 003°17'613.8
2019-Jul-13 21:18N 52°30' E 003°20'413.7
2019-Jul-13 21:00N 52°26' E 003°22'713.3
2019-Jul-13 20:31N 52°20' E 003°25'713.2
2019-Jul-13 19:59N 52°13' E 003°29'612.8
2019-Jul-13 19:30N 52°08' E 003°34'714.0
2019-Jul-13 19:00N 52°05' E 003°44'612.6
2019-Jul-13 18:30N 52°02' E 003°54'714.6
2019-Jul-13 18:01N 51°59' E 004°04'713.5
2019-Jul-13 17:30N 51°56' E 004°14'510.1
2019-Jul-13 17:00N 51°54' E 004°21'4 8.2
2019-Jul-13 16:30N 51°54' E 004°28'1 1.4
2019-Jul-13 15:59N 51°54' E 004°29'0 0.0
2019-Jul-13 15:29N 51°54' E 004°29'0 0.0
2019-Jul-13 14:59N 51°54' E 004°29'0 0.0
2019-Jul-13 14:29N 51°54' E 004°29'0 0.0
2019-Jul-13 13:53N 51°54' E 004°29'0 0.0
2019-Jul-13 13:29N 51°54' E 004°29'0 0.0
2019-Jul-13 12:59N 51°54' E 004°29'0 0.0
2019-Jul-13 12:29N 51°54' E 004°29'0 0.0
2019-Jul-13 11:59N 51°54' E 004°29'0 0.0
2019-Jul-13 11:29N 51°54' E 004°29'0 0.0
2019-Jul-13 10:59N 51°54' E 004°29'0 0.0
2019-Jul-13 10:29N 51°54' E 004°29'0 0.0
2019-Jul-13 09:59N 51°54' E 004°29'0 0.0
2019-Jul-13 09:29N 51°54' E 004°29'0 0.0
2019-Jul-13 08:59N 51°54' E 004°29'0 0.0
2019-Jul-13 08:29N 51°54' E 004°29'0 0.0
2019-Jul-13 07:59N 51°54' E 004°29'0 0.0
2019-Jul-13 07:29N 51°54' E 004°29'0 0.0
2019-Jul-13 06:59N 51°54' E 004°29'0 0.0
2019-Jul-13 06:29N 51°54' E 004°29'0 0.0
2019-Jul-13 05:59N 51°54' E 004°29'0 0.0
2019-Jul-13 05:29N 51°54' E 004°29'0 0.0
2019-Jul-13 05:00N 51°54' E 004°29'2 3.2
2019-Jul-13 04:30N 51°54' E 004°27'2 3.2
2019-Jul-13 04:00N 51°54' E 004°24'4 7.6
2019-Jul-13 03:30N 51°54' E 004°18'5 9.5
2019-Jul-13 03:00N 51°56' E 004°12'611.7
2019-Jul-13 02:30N 51°59' E 004°03'714.4
2019-Jul-13 02:00N 52°00' E 003°52'4 8.1
2019-Jul-13 01:30N 52°02' E 003°46'611.2
2019-Jul-13 01:00N 52°08' E 003°46'611.1
2019-Jul-13 00:30N 52°14' E 003°47'611.1
2019-Jul-13 00:00N 52°19' E 003°48'510.9
2019-Jul-12 23:30N 52°25' E 003°49'610.8
2019-Jul-12 23:00N 52°30' E 003°51'510.7
2019-Jul-12 22:30N 52°35' E 003°53'610.7
2019-Jul-12 21:57N 52°41' E 003°55'511.4
2019-Jul-12 21:30N 52°46' E 003°57'2112.7
2019-Jul-12 19:49N 53°04' E 004°14'413.4
2019-Jul-12 19:30N 53°07' E 004°20'813.2
2019-Jul-12 18:53N 53°14' E 004°27'21113.3
2019-Jul-12 03:00N 56°42' E 005°24'1223.9 080 / 81010.0 5.4 14.213.615.7
2019-Jul-12 02:30N 56°54' E 005°28'1412.8
2019-Jul-12 01:24N 57°08' E 005°26'512.5
2019-Jul-12 01:00N 57°13' E 005°24'712.8
2019-Jul-12 00:28N 57°19' E 005°22'613.2
2019-Jul-12 00:00N 57°25' E 005°20'713.3
2019-Jul-11 23:30N 57°32' E 005°19'713.3
2019-Jul-11 23:00N 57°39' E 005°17'713.3
2019-Jul-11 22:30N 57°45' E 005°15'713.4
2019-Jul-11 22:00N 57°52' E 005°13'713.6
2019-Jul-11 21:30N 57°58' E 005°10'713.5
2019-Jul-11 21:00N 58°05' E 005°09'613.0
2019-Jul-11 20:30N 58°11' E 005°07'712.9
2019-Jul-11 20:00N 58°18' E 005°03'713.2
2019-Jul-11 19:30N 58°24' E 005°03'713.2
2019-Jul-11 19:00N 58°31' E 005°05'3820.2
2019-Jul-11 19:00N 58°30' E 005°00'816.2 180 / 51009.010.8 13.310.812.4
2019-Jul-11 18:30N 58°38' E 005°06'612.3
2019-Jul-11 18:01N 58°43' E 005°11'712.8
2019-Jul-11 17:30N 58°47' E 005°20'612.5
2019-Jul-11 17:00N 58°51' E 005°30'611.3
2019-Jul-11 16:31N 58°57' E 005°33'612.3
2019-Jul-11 16:01N 59°03' E 005°33'510.3
2019-Jul-11 15:30N 59°00' E 005°41'2 3.9
2019-Jul-11 14:58N 58°58' E 005°44'0 0.0
2019-Jul-11 14:28N 58°58' E 005°44'0 0.0
2019-Jul-11 13:58N 58°58' E 005°44'0 0.0
2019-Jul-11 13:28N 58°58' E 005°44'0 0.0
2019-Jul-11 12:58N 58°58' E 005°44'0 0.0
2019-Jul-11 12:28N 58°58' E 005°44'0 0.0
2019-Jul-11 11:58N 58°58' E 005°44'0 0.0
2019-Jul-11 11:28N 58°58' E 005°44'0 0.0
2019-Jul-11 10:40N 58°58' E 005°44'0 0.0
2019-Jul-11 10:25N 58°58' E 005°44'0 0.0
2019-Jul-11 09:49N 58°58' E 005°44'0 0.0
2019-Jul-11 08:34N 58°58' E 005°44'0 0.0
2019-Jul-11 08:13N 58°58' E 005°44'0 0.0
2019-Jul-11 07:43N 58°58' E 005°44'0 0.0
2019-Jul-11 07:22N 58°58' E 005°44'0 0.0
2019-Jul-11 06:52N 58°58' E 005°44'0 0.0
2019-Jul-11 06:25N 58°58' E 005°44'0 0.0
2019-Jul-11 05:55N 58°58' E 005°44'0 0.5
2019-Jul-11 05:30N 58°59' E 005°44'3 5.5
2019-Jul-11 05:00N 59°01' E 005°40'611.1
2019-Jul-11 04:30N 59°05' E 005°32'5 9.6
2019-Jul-11 04:00N 59°05' E 005°23'611.6
2019-Jul-11 03:30N 59°03' E 005°13'611.7
2019-Jul-11 03:00N 59°01' E 005°02'611.6
2019-Jul-11 02:30N 58°60' E 004°52'510.3
2019-Jul-11 02:00N 59°02' E 004°42'611.7
2019-Jul-11 01:30N 59°06' E 004°35'611.6
2019-Jul-11 01:00N 59°11' E 004°28'611.0
2019-Jul-11 00:27N 59°17' E 004°25'711.5
2019-Jul-10 23:50N 59°24' E 004°28'411.9
2019-Jul-10 23:30N 59°28' E 004°30'612.8
2019-Jul-10 23:00N 59°29' E 004°42'713.6
2019-Jul-10 22:30N 59°29' E 004°55'713.5
2019-Jul-10 22:00N 59°30' E 005°09'612.1
2019-Jul-10 21:29N 59°35' E 005°15'714.1
2019-Jul-10 21:00N 59°41' E 005°23'714.1
2019-Jul-10 20:29N 59°46' E 005°32'713.9
2019-Jul-10 19:59N 59°52' E 005°40'713.6
2019-Jul-10 19:30N 59°57' E 005°48'4 0.2
2019-Jul-10 01:18N 59°60' E 005°53'517.9
2019-Jul-10 01:00N 59°56' E 005°46'816.3
2019-Jul-10 00:29N 59°49' E 005°36'37 5.6
2019-Jul-09 17:57N 60°24' E 005°16'1 0.3
2019-Jul-09 14:05N 60°23' E 005°19'0 0.0
2019-Jul-09 13:59N 60°23' E 005°19'0 0.0
2019-Jul-09 13:29N 60°23' E 005°19'0 0.0
2019-Jul-09 12:59N 60°23' E 005°19'0 0.0
2019-Jul-09 12:29N 60°23' E 005°19'0 0.0
2019-Jul-09 11:59N 60°23' E 005°19'0 0.0
2019-Jul-09 11:29N 60°23' E 005°19'0 0.0
2019-Jul-09 10:59N 60°23' E 005°19'0 0.0
2019-Jul-09 10:29N 60°23' E 005°19'0 0.0
2019-Jul-09 09:59N 60°23' E 005°19'0 0.0
2019-Jul-09 09:29N 60°23' E 005°19'0 0.0
2019-Jul-09 08:59N 60°23' E 005°19'0 0.0
2019-Jul-09 08:29N 60°23' E 005°19'0 0.0
2019-Jul-09 07:59N 60°23' E 005°19'0 0.0
2019-Jul-09 07:29N 60°23' E 005°19'1 2.8
2019-Jul-09 07:00N 60°24' E 005°16'  
Track history (hours):
 
Tides and Currents Weather Stations Pressure Air Temp Water Temp Dewpoint Dewpoint Depression Visibility Wind Speed Wind Dir Waves Ship Positions

Zuiderdam (Netherlands)

Operator: Holland America Line

Last reported at 2019-Jul-19 07:00 UTC. Time now 2019-Jul-20 13:32 UTC.
Position N 66°18' W 019°30'.

Type: Passenger vessel. MMSI: 245304000.

Wind from 060 at 44 knots

Barometer 1007.0 mb
Air temperature 8.1 ° C
Visibility: greater than 0.5 NM
Dewpoint 7.5 ° C
Water temperature 11.0 ° C

Date/timePositionNaut miles runAvg speedWind from/ knotsBaromVisibWave heightAir tempDewpointWater temp
2019-Jul-19 07:00N 66°18' W 019°30'3215.9 060 / 441007.0 0.5 8.1 7.511.0
2019-Jul-19 05:00N 66°24' W 020°48'13310.2 080 / 381008.0 2.2 8.0 7.110.3
2019-Jul-18 16:00N 64°18' W 022°30'214.3 050 / 321002.010.8 17.911.214.2
2019-Jul-18 15:52N 64°18' W 022°26'818.1
2019-Jul-18 15:25N 64°15' W 022°09'911.4
2019-Jul-18 14:36N 64°09' W 021°52'0 0.0
2019-Jul-18 14:24N 64°09' W 021°52'0 0.0
2019-Jul-18 14:00N 64°09' W 021°52'0 0.0
2019-Jul-18 13:18N 64°09' W 021°52'0 0.0
2019-Jul-18 12:12N 64°09' W 021°52'0 0.0
2019-Jul-18 09:18N 64°09' W 021°52'0 0.0
2019-Jul-18 07:30N 64°09' W 021°52'0 0.0
2019-Jul-18 05:30N 64°09' W 021°52'0 0.0
2019-Jul-18 04:54N 64°09' W 021°52'0 0.0
2019-Jul-18 03:36N 64°09' W 021°52'0 0.0
2019-Jul-18 03:30N 64°09' W 021°52'0 0.0
2019-Jul-18 03:00N 64°09' W 021°52'0 0.0
2019-Jul-18 01:18N 64°09' W 021°52'0 0.0
2019-Jul-18 00:18N 64°09' W 021°52'0 0.0
2019-Jul-18 00:00N 64°09' W 021°52'0 0.0
2019-Jul-17 23:30N 64°09' W 021°52'0 0.0
2019-Jul-17 22:48N 64°09' W 021°52'0 0.0
2019-Jul-17 22:30N 64°09' W 021°52'0 0.0
2019-Jul-17 18:42N 64°09' W 021°52'0 0.0
2019-Jul-17 18:06N 64°09' W 021°52'0 0.0
2019-Jul-17 13:36N 64°09' W 021°52'0 0.0
2019-Jul-17 13:00N 64°09' W 021°52'0 0.0
2019-Jul-17 10:42N 64°09' W 021°52'0 0.0
2019-Jul-17 08:24N 64°09' W 021°52'17 7.1
2019-Jul-17 06:00N 64°06' W 022°30'1616.0 060 / 181002.0 0.3 12.411.613.9
2019-Jul-17 05:00N 63°54' W 022°54'3015.2 330 / 251002.0 12.611.814.1
2019-Jul-17 03:00N 63°30' W 022°12'10617.7 070 / 101002.0 5.4 12.511.714.0
2019-Jul-16 21:00N 62°48' W 018°36'9318.7 100 / 151002.0 5.4 14.112.714.1
2019-Jul-16 16:00N 62°18' W 015°24'12120.2 140 / 181004.0 5.4 14.112.814.9
2019-Jul-16 10:00N 61°42' W 011°18'5719.1 170 / 221019.0 0.5 12.712.413.9
2019-Jul-16 07:00N 61°24' W 009°24'1818.3 260 / 141012.0 1.1 11.811.513.3
2019-Jul-16 06:00N 61°18' W 008°48'1818.3 280 / 141013.0 0.5 11.511.213.5
2019-Jul-16 05:00N 61°12' W 008°12'253 9.5 270 / 171014.0 0.3 11.811.313.0
2019-Jul-15 02:14N 59°16' W 000°38'1218.1
2019-Jul-15 01:35N 59°05' W 000°32'318.0
2019-Jul-15 01:26N 59°02' W 000°30'917.9
2019-Jul-15 00:58N 58°54' W 000°25'817.8
2019-Jul-15 00:29N 58°46' W 000°21'917.6
2019-Jul-14 23:59N 58°37' W 000°16'917.4
2019-Jul-14 23:27N 58°28' W 000°11'1317.1
2019-Jul-14 22:42N 58°16' W 000°05'716.9
2019-Jul-14 22:18N 58°10' W 000°00'616.9
2019-Jul-14 21:55N 58°04' E 000°04'716.9
2019-Jul-14 21:28N 57°57' E 000°08'816.8
2019-Jul-14 21:00N 57°49' E 000°13'816.8
2019-Jul-14 20:30N 57°41' E 000°17'917.0
2019-Jul-14 19:59N 57°33' E 000°22'917.1
2019-Jul-14 19:28N 57°24' E 000°28'1017.4
2019-Jul-14 18:54N 57°15' E 000°34'817.5
2019-Jul-14 18:27N 57°07' E 000°38'817.5
2019-Jul-14 18:00N 56°60' E 000°43'917.5
2019-Jul-14 17:30N 56°52' E 000°48'2344.4
2019-Jul-14 17:00N 56°30' E 001°00'1425298.9 340 / 421024.0 5.4 13.8 9.616.5
2019-Jul-14 16:59N 56°43' E 000°53'713.8
2019-Jul-14 16:29N 56°37' E 000°56'713.8
2019-Jul-14 16:00N 56°30' E 001°00'713.9
2019-Jul-14 15:30N 56°24' E 001°04'813.8
2019-Jul-14 14:58N 56°17' E 001°08'613.6
2019-Jul-14 14:29N 56°10' E 001°11'813.5
2019-Jul-14 13:55N 56°03' E 001°15'613.3
2019-Jul-14 13:26N 55°57' E 001°19'613.2
2019-Jul-14 12:59N 55°51' E 001°22'713.1
2019-Jul-14 12:29N 55°45' E 001°25'613.2
2019-Jul-14 12:00N 55°39' E 001°29'713.2
2019-Jul-14 11:30N 55°33' E 001°32'713.2
2019-Jul-14 11:00N 55°26' E 001°35'713.3
2019-Jul-14 10:27N 55°19' E 001°39'816.5
2019-Jul-14 10:00N 55°12' E 001°42'1 9.8 350 / 251023.0 5.4 13.9 9.316.8
2019-Jul-14 09:55N 55°13' E 001°43'613.5
2019-Jul-14 09:30N 55°07' E 001°46'713.5
2019-Jul-14 09:00N 55°01' E 001°49'4213.3
2019-Jul-14 05:52N 54°21' E 002°11'5213.5
2019-Jul-14 02:00N 53°30' E 002°30'4314.5 330 / 211022.0 5.4 15.111.518.0
2019-Jul-13 23:02N 52°53' E 003°07'414.8
2019-Jul-13 22:45N 52°49' E 003°09'414.6
2019-Jul-13 22:28N 52°45' E 003°12'1114.1
2019-Jul-13 21:44N 52°35' E 003°17'613.8
2019-Jul-13 21:18N 52°30' E 003°20'413.7
2019-Jul-13 21:00N 52°26' E 003°22'713.3
2019-Jul-13 20:31N 52°20' E 003°25'713.2
2019-Jul-13 19:59N 52°13' E 003°29'612.8
2019-Jul-13 19:30N 52°08' E 003°34'714.0
2019-Jul-13 19:00N 52°05' E 003°44'612.6
2019-Jul-13 18:30N 52°02' E 003°54'714.6
2019-Jul-13 18:01N 51°59' E 004°04'713.5
2019-Jul-13 17:30N 51°56' E 004°14'510.1
2019-Jul-13 17:00N 51°54' E 004°21'4 8.2
2019-Jul-13 16:30N 51°54' E 004°28'1 1.4
2019-Jul-13 15:59N 51°54' E 004°29'0 0.0
2019-Jul-13 15:29N 51°54' E 004°29'0 0.0
2019-Jul-13 14:59N 51°54' E 004°29'0 0.0
2019-Jul-13 14:29N 51°54' E 004°29'0 0.0
2019-Jul-13 13:53N 51°54' E 004°29'0 0.0
2019-Jul-13 13:29N 51°54' E 004°29'0 0.0
2019-Jul-13 12:59N 51°54' E 004°29'0 0.0
2019-Jul-13 12:29N 51°54' E 004°29'0 0.0
2019-Jul-13 11:59N 51°54' E 004°29'0 0.0
2019-Jul-13 11:29N 51°54' E 004°29'0 0.0
2019-Jul-13 10:59N 51°54' E 004°29'0 0.0
2019-Jul-13 10:29N 51°54' E 004°29'0 0.0
2019-Jul-13 09:59N 51°54' E 004°29'0 0.0
2019-Jul-13 09:29N 51°54' E 004°29'0 0.0
2019-Jul-13 08:59N 51°54' E 004°29'0 0.0
2019-Jul-13 08:29N 51°54' E 004°29'0 0.0
2019-Jul-13 07:59N 51°54' E 004°29'0 0.0
2019-Jul-13 07:29N 51°54' E 004°29'0 0.0
2019-Jul-13 06:59N 51°54' E 004°29'0 0.0
2019-Jul-13 06:29N 51°54' E 004°29'0 0.0
2019-Jul-13 05:59N 51°54' E 004°29'0 0.0
2019-Jul-13 05:29N 51°54' E 004°29'0 0.0
2019-Jul-13 05:00N 51°54' E 004°29'2 3.2
2019-Jul-13 04:30N 51°54' E 004°27'2 3.2
2019-Jul-13 04:00N 51°54' E 004°24'4 7.6
2019-Jul-13 03:30N 51°54' E 004°18'5 9.5
2019-Jul-13 03:00N 51°56' E 004°12'611.7
2019-Jul-13 02:30N 51°59' E 004°03'714.4
2019-Jul-13 02:00N 52°00' E 003°52'4 8.1
2019-Jul-13 01:30N 52°02' E 003°46'611.2
2019-Jul-13 01:00N 52°08' E 003°46'611.1
2019-Jul-13 00:30N 52°14' E 003°47'611.1
2019-Jul-13 00:00N 52°19' E 003°48'510.9
2019-Jul-12 23:30N 52°25' E 003°49'610.8
2019-Jul-12 23:00N 52°30' E 003°51'510.7
2019-Jul-12 22:30N 52°35' E 003°53'610.7
2019-Jul-12 21:57N 52°41' E 003°55'511.4
2019-Jul-12 21:30N 52°46' E 003°57'2112.7
2019-Jul-12 19:49N 53°04' E 004°14'413.4
2019-Jul-12 19:30N 53°07' E 004°20'813.2
2019-Jul-12 18:53N 53°14' E 004°27'21113.3
2019-Jul-12 03:00N 56°42' E 005°24'1223.9 080 / 81010.0 5.4 14.213.615.7
2019-Jul-12 02:30N 56°54' E 005°28'1412.8
2019-Jul-12 01:24N 57°08' E 005°26'512.5
2019-Jul-12 01:00N 57°13' E 005°24'712.8
2019-Jul-12 00:28N 57°19' E 005°22'613.2
2019-Jul-12 00:00N 57°25' E 005°20'713.3
2019-Jul-11 23:30N 57°32' E 005°19'713.3
2019-Jul-11 23:00N 57°39' E 005°17'713.3
2019-Jul-11 22:30N 57°45' E 005°15'713.4
2019-Jul-11 22:00N 57°52' E 005°13'713.6
2019-Jul-11 21:30N 57°58' E 005°10'713.5
2019-Jul-11 21:00N 58°05' E 005°09'613.0
2019-Jul-11 20:30N 58°11' E 005°07'712.9
2019-Jul-11 20:00N 58°18' E 005°03'713.2
2019-Jul-11 19:30N 58°24' E 005°03'713.2
2019-Jul-11 19:00N 58°31' E 005°05'3820.2
2019-Jul-11 19:00N 58°30' E 005°00'816.2 180 / 51009.010.8 13.310.812.4
2019-Jul-11 18:30N 58°38' E 005°06'612.3
2019-Jul-11 18:01N 58°43' E 005°11'712.8
2019-Jul-11 17:30N 58°47' E 005°20'612.5
2019-Jul-11 17:00N 58°51' E 005°30'611.3
2019-Jul-11 16:31N 58°57' E 005°33'612.3
2019-Jul-11 16:01N 59°03' E 005°33'510.3
2019-Jul-11 15:30N 59°00' E 005°41'2 3.9
2019-Jul-11 14:58N 58°58' E 005°44'0 0.0
2019-Jul-11 14:28N 58°58' E 005°44'0 0.0
2019-Jul-11 13:58N 58°58' E 005°44'0 0.0
2019-Jul-11 13:28N 58°58' E 005°44'0 0.0
2019-Jul-11 12:58N 58°58' E 005°44'0 0.0
2019-Jul-11 12:28N 58°58' E 005°44'0 0.0
2019-Jul-11 11:58N 58°58' E 005°44'0 0.0
2019-Jul-11 11:28N 58°58' E 005°44'0 0.0
2019-Jul-11 10:40N 58°58' E 005°44'0 0.0
2019-Jul-11 10:25N 58°58' E 005°44'0 0.0
2019-Jul-11 09:49N 58°58' E 005°44'0 0.0
2019-Jul-11 08:34N 58°58' E 005°44'0 0.0
2019-Jul-11 08:13N 58°58' E 005°44'0 0.0
2019-Jul-11 07:43N 58°58' E 005°44'0 0.0
2019-Jul-11 07:22N 58°58' E 005°44'0 0.0
2019-Jul-11 06:52N 58°58' E 005°44'0 0.0
2019-Jul-11 06:25N 58°58' E 005°44'0 0.0
2019-Jul-11 05:55N 58°58' E 005°44'0 0.5
2019-Jul-11 05:30N 58°59' E 005°44'3 5.5
2019-Jul-11 05:00N 59°01' E 005°40'611.1
2019-Jul-11 04:30N 59°05' E 005°32'5 9.6
2019-Jul-11 04:00N 59°05' E 005°23'611.6
2019-Jul-11 03:30N 59°03' E 005°13'611.7
2019-Jul-11 03:00N 59°01' E 005°02'611.6
2019-Jul-11 02:30N 58°60' E 004°52'510.3
2019-Jul-11 02:00N 59°02' E 004°42'611.7
2019-Jul-11 01:30N 59°06' E 004°35'611.6
2019-Jul-11 01:00N 59°11' E 004°28'611.0
2019-Jul-11 00:27N 59°17' E 004°25'711.5
2019-Jul-10 23:50N 59°24' E 004°28'411.9
2019-Jul-10 23:30N 59°28' E 004°30'612.8
2019-Jul-10 23:00N 59°29' E 004°42'713.6
2019-Jul-10 22:30N 59°29' E 004°55'713.5
2019-Jul-10 22:00N 59°30' E 005°09'612.1
2019-Jul-10 21:29N 59°35' E 005°15'714.1
2019-Jul-10 21:00N 59°41' E 005°23'714.1
2019-Jul-10 20:29N 59°46' E 005°32'713.9
2019-Jul-10 19:59N 59°52' E 005°40'713.6
2019-Jul-10 19:30N 59°57' E 005°48'4 0.2
2019-Jul-10 01:18N 59°60' E 005°53'517.9
2019-Jul-10 01:00N 59°56' E 005°46'816.3
2019-Jul-10 00:29N 59°49' E 005°36'37 5.6
2019-Jul-09 17:57N 60°24' E 005°16'1 0.3
2019-Jul-09 14:05N 60°23' E 005°19'0 0.0
2019-Jul-09 13:59N 60°23' E 005°19'0 0.0
2019-Jul-09 13:29N 60°23' E 005°19'0 0.0
2019-Jul-09 12:59N 60°23' E 005°19'0 0.0
2019-Jul-09 12:29N 60°23' E 005°19'0 0.0
2019-Jul-09 11:59N 60°23' E 005°19'0 0.0
2019-Jul-09 11:29N 60°23' E 005°19'0 0.0
2019-Jul-09 10:59N 60°23' E 005°19'0 0.0
2019-Jul-09 10:29N 60°23' E 005°19'0 0.0
2019-Jul-09 09:59N 60°23' E 005°19'0 0.0
2019-Jul-09 09:29N 60°23' E 005°19'0 0.0
2019-Jul-09 08:59N 60°23' E 005°19'0 0.0
2019-Jul-09 08:29N 60°23' E 005°19'0 0.0
2019-Jul-09 07:59N 60°23' E 005°19'0 0.0
2019-Jul-09 07:29N 60°23' E 005°19'1 2.8
2019-Jul-09 07:00N 60°24' E 005°16'  

Dump ship's entire track history